Khanom, Thailand

10:30 AM ICT on October 01, 2016 (GMT +0700)
Samui | | Change Station

Elev 66 ft 9.55 °N, 100.06 °E | Updated 30 minutes ago

Partly Cloudy
Partly Cloudy
88 °F
Feels Like 98 °F
N
12
Wind Variable Wind from WNW

Today
High -- | Low -- °F
--% Chance of Precip.
Yesterday
High -- | Low -- °F
Precip. -- in
Pressure 29.86 in
Visibility 6.2 miles
Clouds Few 2000 ft
Heat Index 98 °F
Dew Point 75 °F
Humidity 66%
Rainfall 0.00 in
Snow Depth Not available.
6:08 AM 6:11 PM
New Moon, 0% visible
METAR VTSM 010300Z 29010KT 9999 FEW020 31/24 Q1011
Pressure 29.86 in
Visibility 6.2 miles
Clouds Few 2000 ft
Heat Index 98 °F
Dew Point 75 °F
Humidity 66%
Rainfall 0.00 in
Snow Depth Not available.
6:08 AM 6:11 PM
New Moon, 0% visible
METAR VTSM 010300Z 29010KT 9999 FEW020 31/24 Q1011

10-Day Weather Forecast

No radar image for this location.
×

Almanac

Astronomy

Oct. 01, 2016 Rise Set
Actual Time
Civil Twilight
Nautical Twilight
Astronomical Twilight
Moon
Length of Visible Light
Length of Day
Tomorrow will be .
, % of the Moon is Illuminated

Today's Extremes

Country Highs Country Lows

Community

WunderPhotos

Upload Photos

1,942,883 photos uploaded!

WunderBlog® & News

Nearby

Air Quality

  Air Quality AQ Index Pollutant
Not available.

Snow Depth

Station Depth Elevation

Earthquake Activity

City Distance Mag. Time & Date
Minimum magnitude displayed is 2.5.

Coastal Water Temperatures

Place Temperature

Stations

Nearby Weather Stations

Station Location Temp. Windchill Dew Point Humidity Wind Precip. Elev Updated Type